Terminal Aerodrome Forecast
Issued by NWS Jackson, MS

Home | Current Version | Previous Version | Text Only | Print | Product List | Glossary On
Versions: 1 2 3 4 5 6 7 8 9 10 11 12
000
FTUS44 KJAN 230540
TAFGLH
TAF
KGLH 230540Z 2306/2406 26003KT P6SM BKN250
     FM231100 00000KT 5SM BR SCT250
     FM231400 22003KT P6SM SCT030
     FM231800 25004KT P6SM VCTS SCT050CB
     FM240100 13003KT P6SM SCT250=

USA.gov is the U.S. government's official web portal to all federal, state and local government web resources and services.